Time;durP1;ratioP1;P1;durP2;ratioP2;P2;SDS_P1;SDS_P2;PMS_P1;PMS_P2;Temp;Humidity;BMP_temperature;BMP_pressure;BME280_temperature;BME280_humidity;BME280_pressure;Samples;Min_cycle;Max_cycle;Signal;HPM_P1;HPM_P2
2023/04/05 00:01:24;;;;;;;;;7.00;7.00;;;;;6.24;69.29;101012.63;5053196;28;45322;-80
2023/04/05 00:03:51;;;;;;;;;7.00;6.75;;;;;6.23;69.43;101009.94;5064007;28;46202;-74
2023/04/05 00:06:17;;;;;;;;;9.50;7.75;;;;;6.18;69.29;101013.19;5068542;28;45477;-77
2023/04/05 00:08:43;;;;;;;;;6.50;6.50;;;;;6.10;69.88;101011.88;5068724;28;45510;-80
2023/04/05 00:11:09;;;;;;;;;7.00;7.00;;;;;6.03;70.30;101020.16;5060209;28;45427;-80
2023/04/05 00:13:34;;;;;;;;;6.00;5.25;;;;;5.90;70.31;101002.94;5068335;28;46128;-80
2023/04/05 00:16:00;;;;;;;;;7.00;7.00;;;;;6.02;70.09;101023.53;5066958;28;45495;-80
2023/04/05 00:18:26;;;;;;;;;8.00;7.00;;;;;5.97;69.74;101017.22;5068932;28;45517;-80
2023/04/05 00:20:52;;;;;;;;;9.00;7.00;;;;;5.90;69.92;101025.41;5063771;28;45422;-80
2023/04/05 00:23:19;;;;;;;;;7.50;7.00;;;;;5.87;69.93;101027.81;5066399;28;45461;-79
2023/04/05 00:25:45;;;;;;;;;11.00;11.00;;;;;5.76;71.42;101027.22;5066422;28;45235;-79
2023/04/05 00:28:12;;;;;;;;;7.00;7.00;;;;;5.73;71.34;101021.84;5065711;28;45560;-80
2023/04/05 00:30:38;;;;;;;;;8.50;7.00;;;;;5.74;71.08;101014.16;5068906;28;45506;-80
2023/04/05 00:33:04;;;;;;;;;9.00;6.75;;;;;5.75;70.55;101018.56;5071705;28;45739;-80
2023/04/05 00:35:30;;;;;;;;;8.25;7.00;;;;;5.65;71.17;101007.56;5067529;28;45396;-80
2023/04/05 00:37:56;;;;;;;;;6.50;6.50;;;;;5.66;71.04;101004.16;5065042;28;45572;-80
2023/04/05 00:40:25;;;;;;;;;5.50;5.50;;;;;5.71;71.34;101011.41;5064316;28;45420;-80
2023/04/05 00:42:50;;;;;;;;;6.00;6.00;;;;;5.56;71.27;100994.97;5064616;28;45367;-80
2023/04/05 00:45:15;;;;;;;;;9.75;8.00;;;;;5.64;71.27;101014.44;5070526;28;45425;-80
2023/04/05 00:47:42;;;;;;;;;5.25;5.25;;;;;5.63;70.43;101010.09;5064985;28;45661;-80
2023/04/05 00:50:08;;;;;;;;;6.50;6.50;;;;;5.63;70.52;101022.13;5070921;28;45466;-80
2023/04/05 00:52:36;;;;;;;;;8.00;8.00;;;;;5.60;70.93;101016.78;5063986;28;46091;-80
2023/04/05 00:55:04;;;;;;;;;8.75;8.25;;;;;5.55;71.27;101021.69;5064157;28;45458;-80
2023/04/05 00:57:30;;;;;;;;;9.00;9.00;;;;;5.40;70.81;101010.44;5067951;28;45458;-79
2023/04/05 01:00:00;;;;;;;;;6.75;6.75;;;;;5.48;70.52;101035.09;5075378;28;45295;-76
2023/04/05 01:02:38;;;;;;;;;6.25;6.25;;;;;5.44;70.83;101033.13;5067696;28;46098;-80
2023/04/05 01:05:13;;;;;;;;;7.25;7.25;;;;;5.42;70.96;101032.16;5069208;28;45600;-79
2023/04/05 01:08:06;;;;;;;;;5.75;5.75;;;;;5.39;70.07;101019.91;5063808;28;45466;-80
2023/04/05 01:10:36;;;;;;;;;6.00;5.25;;;;;5.44;70.58;101022.78;5068267;28;45499;-79
2023/04/05 01:13:03;;;;;;;;;6.75;6.25;;;;;5.45;70.87;101022.88;5064904;28;45967;-70
2023/04/05 01:15:28;;;;;;;;;7.00;6.50;;;;;5.49;71.19;101016.16;5067765;28;45537;-80
2023/04/05 01:17:56;;;;;;;;;9.25;8.75;;;;;5.41;71.26;101001.84;5047158;28;45436;-78
2023/04/05 01:20:24;;;;;;;;;10.75;9.25;;;;;5.49;71.40;101016.16;5066641;28;45309;-68
2023/04/05 01:23:13;;;;;;;;;6.25;6.25;;;;;5.50;70.94;101015.34;5068112;28;46079;-81
2023/04/05 01:26:24;;;;;;;;;7.25;6.25;;;;;5.50;70.76;101015.34;5064267;28;45194;-79
2023/04/05 01:29:16;;;;;;;;;10.00;9.00;;;;;5.51;70.92;101014.53;5074595;28;45548;-80
2023/04/05 01:31:48;;;;;;;;;7.50;6.75;;;;;5.48;70.64;101001.41;5053084;28;46136;-80
2023/04/05 01:34:23;;;;;;;;;8.25;7.00;;;;;5.33;71.11;100989.38;5072503;28;46049;-80
2023/04/05 01:36:54;;;;;;;;;7.00;6.75;;;;;5.28;71.63;100983.00;5070155;28;45516;-80
2023/04/05 01:39:22;;;;;;;;;10.00;7.00;;;;;5.34;71.95;101001.50;5068567;28;45527;-81
2023/04/05 01:41:47;;;;;;;;;5.50;5.50;;;;;5.35;71.26;101000.72;5070380;28;45441;-79
2023/04/05 01:44:13;;;;;;;;;8.25;7.25;;;;;5.34;71.14;101006.69;5057197;28;45651;-80
2023/04/05 01:46:39;;;;;;;;;8.25;7.00;;;;;5.29;71.28;100996.84;5072854;28;45436;-80
2023/04/05 01:49:04;;;;;;;;;7.00;6.50;;;;;5.26;71.55;100997.56;5068512;28;45417;-80
2023/04/05 01:51:30;;;;;;;;;7.00;6.25;;;;;5.22;72.11;100995.63;5068891;28;45492;-80
2023/04/05 01:53:56;;;;;;;;;9.00;7.00;;;;;5.21;71.86;100992.94;5065959;28;45435;-80
2023/04/05 01:56:21;;;;;;;;;6.00;6.00;;;;;5.21;71.48;100987.75;5074831;28;45520;-80
2023/04/05 01:58:47;;;;;;;;;9.75;7.50;;;;;5.21;71.82;100979.97;5076255;28;45481;-79
2023/04/05 02:01:12;;;;;;;;;6.25;6.25;;;;;5.09;71.83;100957.75;5067909;28;45398;-80
2023/04/05 02:03:38;;;;;;;;;9.50;9.00;;;;;5.11;72.21;100970.78;5068100;28;45885;-80
2023/04/05 02:06:04;;;;;;;;;5.50;5.00;;;;;4.94;72.46;100943.91;5071283;28;45562;-80
2023/04/05 02:08:30;;;;;;;;;8.50;8.50;;;;;5.02;72.34;100970.25;5068799;28;45450;-70
2023/04/05 02:10:55;;;;;;;;;7.00;7.00;;;;;4.95;72.40;100964.72;5063289;28;45622;-70
2023/04/05 02:13:21;;;;;;;;;8.00;6.75;;;;;4.96;72.78;100963.91;5067818;28;46232;-80
2023/04/05 02:15:50;;;;;;;;;7.50;6.50;;;;;4.94;72.70;100962.03;5069178;28;45613;-80
2023/04/05 02:18:21;;;;;;;;;6.00;6.00;;;;;4.93;72.47;100961.13;5047187;28;45522;-80
2023/04/05 02:20:50;;;;;;;;;6.75;6.50;;;;;4.95;72.24;100958.63;5077194;28;45402;-81
2023/04/05 02:23:17;;;;;;;;;7.00;6.00;;;;;4.97;72.31;100960.53;5067829;28;46196;-80
2023/04/05 02:25:42;;;;;;;;;7.00;6.25;;;;;4.96;72.49;100961.31;5071555;28;45443;-80
2023/04/05 02:28:08;;;;;;;;;13.00;9.75;;;;;4.97;72.50;100962.19;5066004;28;45746;-80
2023/04/05 02:30:33;;;;;;;;;6.75;6.75;;;;;4.93;72.80;100963.72;5054073;28;45524;-80
2023/04/05 02:32:59;;;;;;;;;10.50;10.00;;;;;4.84;73.33;100957.09;5071585;28;45800;-76
2023/04/05 02:35:24;;;;;;;;;9.75;7.00;;;;;4.73;73.60;100956.44;5070732;28;46339;-80
2023/04/05 02:37:50;;;;;;;;;9.25;7.50;;;;;4.59;73.94;100937.50;5065218;28;45367;-80
2023/04/05 02:40:15;;;;;;;;;7.50;7.00;;;;;4.65;74.52;100950.81;5071712;28;46461;-80
2023/04/05 02:42:41;;;;;;;;;7.00;7.00;;;;;4.63;74.67;100948.94;5070732;28;45541;-80
2023/04/05 02:45:07;;;;;;;;;8.00;7.00;;;;;4.69;74.38;100946.72;5067306;28;45482;-80
2023/04/05 02:47:33;;;;;;;;;8.00;7.25;;;;;4.73;73.98;100956.44;5065612;28;45469;-80
2023/04/05 02:49:59;;;;;;;;;9.25;8.50;;;;;4.76;73.50;100954.94;5072004;28;45473;-76
2023/04/05 02:52:25;;;;;;;;;7.00;6.75;;;;;4.74;73.18;100953.97;5074911;28;46100;-78
2023/04/05 02:54:50;;;;;;;;;9.00;7.00;;;;;4.78;72.77;100952.47;5066286;28;45552;-78
2023/04/05 02:57:17;;;;;;;;;6.25;6.00;;;;;4.68;73.17;100952.72;5073611;28;45520;-78
2023/04/05 02:59:42;;;;;;;;;6.50;6.50;;;;;4.71;72.48;100950.28;5068209;28;45490;-78
2023/04/05 03:02:09;;;;;;;;;9.00;6.00;;;;;4.67;73.19;100946.63;5068406;28;46006;-78
2023/04/05 03:04:35;;;;;;;;;6.00;6.00;;;;;4.63;73.33;100954.13;5066958;28;45517;-78
2023/04/05 03:07:02;;;;;;;;;9.75;8.50;;;;;4.63;73.06;100954.13;5068136;28;45418;-78
2023/04/05 03:09:32;;;;;;;;;8.75;8.75;;;;;4.64;73.55;100956.81;5065042;28;45426;-66
2023/04/05 03:12:02;;;;;;;;;10.50;9.25;;;;;4.65;73.02;100944.75;5067955;28;45543;-78
2023/04/05 03:14:31;;;;;;;;;9.00;8.50;;;;;4.68;72.98;100943.25;5068270;28;45643;-66
2023/04/05 03:16:57;;;;;;;;;7.00;6.75;;;;;4.64;73.47;100936.09;5063095;28;45382;-79
2023/04/05 03:19:25;;;;;;;;;9.00;9.00;;;;;4.66;73.47;100941.38;5068982;28;45375;-78
2023/04/05 03:21:51;;;;;;;;;8.25;6.00;;;;;4.64;74.00;100933.50;5071099;28;45397;-79
2023/04/05 03:24:16;;;;;;;;;7.25;7.25;;;;;4.61;73.73;100930.72;5070015;28;45502;-79
2023/04/05 03:26:44;;;;;;;;;10.00;9.00;;;;;4.60;73.27;100928.97;5069620;28;45537;-79
2023/04/05 03:29:10;;;;;;;;;9.00;9.00;;;;;4.67;73.51;100935.38;5064488;28;45559;-79
2023/04/05 03:31:35;;;;;;;;;10.25;10.25;;;;;4.69;73.21;100933.78;5068137;28;45409;-78
2023/04/05 03:34:01;;;;;;;;;11.25;10.50;;;;;4.68;73.04;100942.38;5073687;28;45545;-78
2023/04/05 03:36:29;;;;;;;;;9.75;9.00;;;;;4.67;73.46;100940.56;5066885;28;45510;-78
2023/04/05 03:38:55;;;;;;;;;8.00;7.25;;;;;4.63;73.31;100941.19;5047686;28;45553;-78
2023/04/05 03:41:21;;;;;;;;;7.50;7.50;;;;;4.61;73.77;100945.38;5067872;28;45451;-79
2023/04/05 03:43:48;;;;;;;;;8.00;8.00;;;;;4.56;73.52;100934.75;5065586;28;45462;-79
2023/04/05 03:46:13;;;;;;;;;5.75;5.75;;;;;4.55;73.03;100923.50;5051890;28;45597;-79
2023/04/05 03:48:39;;;;;;;;;8.75;7.00;;;;;4.57;72.91;100929.66;5066703;28;45460;-79
2023/04/05 03:51:05;;;;;;;;;6.75;6.00;;;;;4.65;72.97;100942.16;5074801;27;45453;-79
2023/04/05 03:53:31;;;;;;;;;7.00;6.00;;;;;4.58;72.61;100927.97;5077643;28;45691;-76
2023/04/05 03:55:57;;;;;;;;;9.00;8.75;;;;;4.60;72.75;100926.38;5078008;28;45473;-80
2023/04/05 03:58:24;;;;;;;;;7.50;6.75;;;;;4.56;72.98;100922.69;5077920;28;45379;-79
2023/04/05 04:00:51;;;;;;;;;6.75;6.75;;;;;4.55;72.91;100930.38;5077404;28;46138;-79
2023/04/05 04:03:17;;;;;;;;;7.00;6.00;;;;;4.53;73.70;100926.78;5075656;28;45499;-78
2023/04/05 04:05:43;;;;;;;;;6.00;6.00;;;;;4.49;73.99;100930.88;5076330;28;45441;-79
2023/04/05 04:08:09;;;;;;;;;9.00;9.00;;;;;4.34;74.07;100912.75;5076405;28;45256;-79
2023/04/05 04:10:35;;;;;;;;;5.50;5.50;;;;;4.42;74.52;100935.59;5076113;28;45422;-79
2023/04/05 04:13:01;;;;;;;;;7.25;6.00;;;;;4.48;74.18;100931.69;5060753;28;45447;-79
2023/04/05 04:15:26;;;;;;;;;6.50;6.50;;;;;4.56;73.78;100929.56;5076362;28;45725;-78
2023/04/05 04:17:52;;;;;;;;;7.00;7.00;;;;;4.64;73.68;100935.22;5077056;28;45554;-78
2023/04/05 04:20:17;;;;;;;;;6.00;6.00;;;;;4.63;73.57;100933.41;5074985;28;45905;-79
2023/04/05 04:22:44;;;;;;;;;9.00;6.75;;;;;4.65;74.02;100929.22;5075341;28;45486;-79
2023/04/05 04:25:11;;;;;;;;;1.50;1.25;;;;;4.71;73.37;100929.59;5076382;28;45359;-79
2023/04/05 04:27:41;;;;;;;;;7.50;7.00;;;;;4.78;73.52;100921.41;5071702;28;45585;-79
2023/04/05 04:30:09;;;;;;;;;5.50;5.00;;;;;4.85;72.80;100925.22;5075095;28;45351;-78
2023/04/05 04:32:51;;;;;;;;;7.50;7.00;;;;;4.86;73.50;100927.91;5076304;28;45407;-79
2023/04/05 04:35:19;;;;;;;;;9.00;6.25;;;;;4.92;73.35;100928.28;5074759;28;45509;-78
2023/04/05 04:38:08;;;;;;;;;9.00;7.50;;;;;4.94;73.22;100926.66;5060320;28;45328;-78
2023/04/05 04:40:38;;;;;;;;;7.00;7.00;;;;;5.04;73.46;100927.22;5076154;28;45552;-69
2023/04/05 04:43:13;;;;;;;;;6.75;6.75;;;;;5.04;72.69;100916.84;5076063;28;45430;-78
2023/04/05 04:45:57;;;;;;;;;6.50;6.00;;;;;5.20;72.19;100929.88;5060967;28;45738;-79
2023/04/05 04:48:23;;;;;;;;;7.00;7.00;;;;;5.27;72.26;100929.44;5047006;28;45872;-79
2023/04/05 04:50:48;;;;;;;;;6.00;6.00;;;;;5.31;71.94;100935.66;5071441;28;46112;-79
2023/04/05 04:53:16;;;;;;;;;7.25;5.25;;;;;5.22;71.36;100917.91;5040470;28;45413;-80
2023/04/05 04:55:42;;;;;;;;;7.00;7.00;;;;;5.27;71.75;100921.66;5050556;28;45445;-80
2023/04/05 04:58:10;;;;;;;;;5.00;4.50;;;;;5.35;71.76;100935.94;5067227;28;45705;-79
2023/04/05 05:00:40;;;;;;;;;9.00;6.75;;;;;5.31;71.80;100934.00;5074828;28;45446;-79
2023/04/05 05:03:07;;;;;;;;;7.00;6.75;;;;;5.31;72.05;100928.81;5076330;28;45686;-78
2023/04/05 05:05:33;;;;;;;;;7.50;6.50;;;;;5.33;72.16;100914.25;5080019;28;45505;-79
2023/04/05 05:07:59;;;;;;;;;5.50;5.50;;;;;5.34;71.03;100910.84;5079228;28;45485;-80
2023/04/05 05:10:25;;;;;;;;;6.00;6.00;;;;;5.29;71.23;100904.50;5078299;28;45369;-79
2023/04/05 05:12:50;;;;;;;;;5.00;5.00;;;;;5.38;71.89;100928.34;5079315;28;45857;-79
2023/04/05 05:15:16;;;;;;;;;10.00;7.00;;;;;5.33;72.11;100916.84;5079595;28;45391;-79
2023/04/05 05:17:42;;;;;;;;;9.00;7.00;;;;;5.45;72.08;100928.69;5078708;28;45613;-78
2023/04/05 05:20:09;;;;;;;;;9.00;7.00;;;;;5.45;72.64;100939.03;5079391;28;46096;-78
2023/04/05 05:22:38;;;;;;;;;9.00;7.00;;;;;5.41;72.72;100942.25;5079091;28;45378;-78
2023/04/05 05:25:05;;;;;;;;;10.25;10.25;;;;;5.40;72.28;100941.38;5078896;28;45425;-78
2023/04/05 05:27:32;;;;;;;;;19.50;18.75;;;;;5.45;72.67;100941.63;5078788;28;45815;-79
2023/04/05 05:29:58;;;;;;;;;6.50;6.50;;;;;5.55;72.37;100938.75;5071715;28;45355;-77
2023/04/05 05:32:23;;;;;;;;;9.75;9.50;;;;;5.64;71.99;100944.47;5072122;28;45453;-77
2023/04/05 05:34:49;;;;;;;;;11.00;11.00;;;;;5.68;72.56;100940.34;5078932;28;45456;-79
2023/04/05 05:37:16;;;;;;;;;18.00;16.00;;;;;5.57;72.18;100929.38;5076232;28;45537;-78
2023/04/05 05:39:43;;;;;;;;;18.75;17.00;;;;;5.53;72.65;100924.81;5066204;28;46150;-78
2023/04/05 05:42:09;;;;;;;;;22.50;22.50;;;;;5.70;72.63;100944.81;5079195;28;45371;-79
2023/04/05 05:44:35;;;;;;;;;10.25;8.00;;;;;5.69;72.12;100940.44;5079849;28;45427;-80
2023/04/05 05:47:01;;;;;;;;;15.50;14.50;;;;;5.75;71.73;100938.19;5061161;28;45666;-79
2023/04/05 05:49:27;;;;;;;;;20.75;20.75;;;;;5.78;72.09;100951.31;5079623;28;45473;-74
2023/04/05 05:51:53;;;;;;;;;36.75;34.50;;;;;5.83;72.27;100967.13;5078151;28;45774;-69
2023/04/05 05:54:18;;;;;;;;;19.25;18.50;;;;;5.81;72.40;100963.56;5078681;28;45406;-70
2023/04/05 05:56:44;;;;;;;;;33.00;31.75;;;;;5.83;72.45;100955.84;5070360;28;45536;-72
2023/04/05 05:59:10;;;;;;;;;67.67;54.33;;;;;5.76;72.45;100959.81;5070478;28;45433;-71
2023/04/05 06:01:37;;;;;;;;;28.00;23.00;;;;;5.70;72.89;100955.16;5065823;28;45525;-76
2023/04/05 06:04:03;;;;;;;;;60.00;50.75;;;;;5.73;72.99;100959.63;5073995;28;45572;-75
2023/04/05 06:06:29;;;;;;;;;57.50;47.00;;;;;5.89;72.98;100956.19;5071733;28;45474;-79
2023/04/05 06:08:55;;;;;;;;;75.50;58.00;;;;;5.92;72.52;100952.06;5060670;28;46321;-74
2023/04/05 06:11:22;;;;;;;;;42.25;35.50;;;;;5.97;72.01;100949.78;5058065;28;45458;-79
2023/04/05 06:13:49;;;;;;;;;38.75;35.50;;;;;6.10;71.55;100956.53;5073522;28;45453;-80
2023/04/05 06:16:14;;;;;;;;;24.50;24.50;;;;;6.20;71.43;100958.78;5077354;28;45643;-79
2023/04/05 06:18:40;;;;;;;;;15.25;12.75;;;;;6.15;71.69;100943.00;5077901;28;46057;-78
2023/04/05 06:21:06;;;;;;;;;17.50;17.50;;;;;6.23;71.35;100958.06;5078619;28;45452;-80
2023/04/05 06:23:31;;;;;;;;;12.25;11.00;;;;;6.25;71.32;100959.94;5078525;28;45524;-77
2023/04/05 06:25:57;;;;;;;;;11.00;10.75;;;;;6.22;71.11;100941.63;5078008;28;45504;-79
2023/04/05 06:28:22;;;;;;;;;20.50;16.75;;;;;6.28;71.32;100943.66;5077855;28;45382;-79
2023/04/05 06:30:48;;;;;;;;;8.50;8.25;;;;;6.21;71.18;100937.25;5067046;28;45574;-79
2023/04/05 06:33:13;;;;;;;;;10.00;9.50;;;;;6.24;70.89;100924.41;5077735;28;45370;-79
2023/04/05 06:35:39;;;;;;;;;22.50;22.00;;;;;6.40;71.09;100936.50;5076300;27;45374;-79
2023/04/05 06:38:05;;;;;;;;;26.50;25.75;;;;;6.47;70.58;100938.63;5077681;28;45640;-76
2023/04/05 06:40:30;;;;;;;;;22.75;21.00;;;;;6.54;70.41;100932.94;5077597;28;45416;-79
2023/04/05 06:42:56;;;;;;;;;10.00;9.50;;;;;6.61;70.01;100934.16;5077782;28;45422;-79
2023/04/05 06:45:22;;;;;;;;;12.50;12.00;;;;;6.61;70.30;100935.88;5042900;28;45524;-76
2023/04/05 06:47:48;;;;;;;;;16.00;16.00;;;;;6.64;70.28;100929.13;5075664;28;46085;-79
2023/04/05 06:50:13;;;;;;;;;15.00;15.00;;;;;6.70;69.62;100923.34;5058002;28;45465;-77
2023/04/05 06:52:39;;;;;;;;;13.75;12.00;;;;;7.53;70.32;100930.09;5077338;28;45724;-76
2023/04/05 06:55:06;;;;;;;;;50.75;44.00;;;;;10.49;63.44;100926.16;5077064;28;45501;-79
2023/04/05 06:57:33;;;;;;;;;93.75;85.75;;;;;12.60;52.89;100917.19;5076401;28;46176;-78
2023/04/05 06:59:58;;;;;;;;;44.25;38.25;;;;;13.91;49.80;100921.38;5075647;28;45512;-77
2023/04/05 07:02:24;;;;;;;;;65.50;51.75;;;;;14.95;47.33;100907.69;5075731;28;45541;-75
2023/04/05 07:04:50;;;;;;;;;63.00;50.50;;;;;16.19;44.41;100909.63;5074640;28;45362;-78
2023/04/05 07:07:16;;;;;;;;;34.25;31.50;;;;;17.37;43.58;100899.44;5076567;28;45988;-79
2023/04/05 07:09:41;;;;;;;;;12.75;12.25;;;;;18.05;40.71;100903.41;5059269;28;45422;-69
2023/04/05 07:12:08;;;;;;;;;23.00;21.00;;;;;18.67;38.77;100898.34;5074171;28;47150;-68
2023/04/05 07:14:35;;;;;;;;;16.50;16.50;;;;;18.99;38.92;100898.44;5077111;28;45336;-76
2023/04/05 07:17:03;;;;;;;;;13.00;13.00;;;;;18.89;38.60;100907.25;5075843;28;46093;-79
2023/04/05 07:19:29;;;;;;;;;12.75;11.50;;;;;19.25;37.24;100884.31;5071163;28;45362;-77
2023/04/05 07:21:55;;;;;;;;;10.00;9.67;;;;;18.42;38.50;100911.53;5077484;28;45486;-80
2023/04/05 07:24:21;;;;;;;;;10.67;10.33;;;;;17.38;40.96;100911.75;5077143;28;45347;-80
2023/04/05 07:26:46;;;;;;;;;30.75;29.25;;;;;16.21;42.99;100914.91;5077284;28;45341;-80
2023/04/05 07:29:12;;;;;;;;;8.00;8.00;;;;;15.25;44.88;100910.84;5076512;28;45486;-69
2023/04/05 07:31:39;;;;;;;;;7.00;7.00;;;;;14.62;46.55;100919.34;5076325;28;45562;-80
2023/04/05 07:34:05;;;;;;;;;12.50;10.50;;;;;14.02;47.85;100920.72;5076738;28;45517;-79
2023/04/05 07:36:31;;;;;;;;;12.67;11.00;;;;;13.86;48.68;100923.00;5075974;28;45432;-80
2023/04/05 07:38:57;;;;;;;;;8.67;8.00;;;;;13.43;49.45;100919.38;5075413;28;45373;-80
2023/04/05 07:41:30;;;;;;;;;7.00;7.00;;;;;13.07;50.50;100920.22;5075686;28;45606;-80
2023/04/05 07:43:59;;;;;;;;;9.00;8.00;;;;;13.10;51.07;100919.38;5075241;28;45406;-79
2023/04/05 07:46:26;;;;;;;;;4.00;4.00;;;;;13.77;49.95;100914.00;5075362;28;46605;-77
2023/04/05 07:48:52;;;;;;;;;10.50;8.00;;;;;13.42;50.35;100901.84;5073197;28;45498;-77
2023/04/05 07:51:17;;;;;;;;;10.00;9.25;;;;;13.90;49.59;100911.69;5075757;28;45611;-80
2023/04/05 07:53:43;;;;;;;;;9.75;9.25;;;;;13.65;50.52;100915.53;5073667;28;45480;-83
2023/04/05 07:56:15;;;;;;;;;8.00;8.00;;;;;15.83;47.17;100907.38;5075733;28;46026;-85
2023/04/05 07:58:41;;;;;;;;;12.50;10.25;;;;;18.06;43.27;100902.56;5075981;28;45550;-88
2023/04/05 08:01:08;;;;;;;;;14.00;12.50;;;;;19.54;40.22;100889.59;5075996;28;45616;-83
2023/04/05 08:03:35;;;;;;;;;16.00;13.50;;;;;20.90;37.55;100884.66;5086097;28;45785;-80
2023/04/05 08:06:18;;;;;;;;;12.00;10.33;;;;;21.73;36.91;100886.63;5090808;28;46145;-80
2023/04/05 08:08:45;;;;;;;;;9.67;8.67;;;;;21.57;37.04;100877.91;5074890;28;45268;-84
2023/04/05 08:11:11;;;;;;;;;12.67;11.00;;;;;21.93;35.51;100883.75;5076032;28;45482;-83
2023/04/05 08:13:40;;;;;;;;;31.50;27.75;;;;;22.58;33.88;100872.28;5061348;28;46199;-79
2023/04/05 08:16:09;;;;;;;;;47.75;36.50;;;;;23.40;33.05;100879.91;5056684;28;46333;-78
2023/04/05 08:18:34;;;;;;;;;21.00;19.67;;;;;23.87;34.30;100875.47;5071498;28;45390;-83
2023/04/05 08:21:00;;;;;;;;;21.25;20.50;;;;;24.51;32.38;100865.28;5081541;27;45377;-85
2023/04/05 08:23:26;;;;;;;;;23.67;21.00;;;;;25.40;32.22;100868.44;5060136;28;45392;-71
2023/04/05 08:25:52;;;;;;;;;18.00;16.00;;;;;25.79;30.96;100879.00;5062937;28;45432;-73
2023/04/05 08:28:18;;;;;;;;;15.67;15.33;;;;;25.86;30.04;100876.16;5073918;28;45582;-72
2023/04/05 08:30:46;;;;;;;;;10.33;10.33;;;;;25.90;29.96;100870.69;5075305;28;45543;-75
2023/04/05 08:33:12;;;;;;;;;12.00;11.33;;;;;25.09;30.30;100881.72;5074314;28;45527;-73
2023/04/05 08:35:38;;;;;;;;;17.00;17.00;;;;;24.95;32.09;100875.84;5073678;28;45640;-73
2023/04/05 08:38:05;;;;;;;;;9.33;9.33;;;;;25.25;32.09;100884.91;5059068;28;45471;-77
2023/04/05 08:40:41;;;;;;;;;9.00;9.00;;;;;25.62;30.23;100880.38;5079619;28;45487;-76
2023/04/05 08:43:17;;;;;;;;;12.33;10.67;;;;;26.20;29.89;100881.44;5079137;28;45352;-77
2023/04/05 08:45:49;;;;;;;;;10.33;9.33;;;;;26.73;29.15;100875.41;5071053;28;45493;-77
2023/04/05 08:48:16;;;;;;;;;6.67;6.67;;;;;27.28;28.02;100878.09;5061349;28;45430;-77
2023/04/05 08:50:48;;;;;;;;;6.00;6.00;;;;;27.34;28.54;100876.06;5074878;28;45481;-73
2023/04/05 08:53:13;;;;;;;;;11.33;10.67;;;;;27.68;28.37;100882.06;5043277;28;45633;-78
2023/04/05 08:55:40;;;;;;;;;8.33;8.33;;;;;27.91;28.14;100879.47;5067375;28;45477;-77
2023/04/05 08:58:12;;;;;;;;;8.00;8.00;;;;;28.71;27.79;100878.19;5079584;28;45406;-78
2023/04/05 09:00:39;;;;;;;;;9.00;7.33;;;;;28.78;26.45;100878.84;5077136;28;45311;-78
2023/04/05 09:03:05;;;;;;;;;7.33;6.00;;;;;28.79;27.06;100867.13;5076746;28;46143;-77
2023/04/05 09:05:32;;;;;;;;;5.67;5.67;;;;;28.90;25.43;100865.75;5079339;28;45543;-77
2023/04/05 09:07:58;;;;;;;;;9.67;9.00;;;;;28.73;25.71;100871.84;5078707;28;47126;-78
2023/04/05 09:10:26;;;;;;;;;7.00;7.00;;;;;28.19;26.67;100859.59;5079050;28;45497;-78
2023/04/05 09:12:52;;;;;;;;;6.00;6.00;;;;;28.71;25.82;100867.44;5079170;28;45395;-77
2023/04/05 09:15:20;;;;;;;;;6.67;5.00;;;;;28.82;25.52;100858.97;5078544;28;45468;-77
2023/04/05 09:17:47;;;;;;;;;6.67;6.00;;;;;28.79;24.56;100869.81;5079006;28;45371;-79
2023/04/05 09:20:12;;;;;;;;;11.00;11.00;;;;;28.80;25.37;100856.31;5079087;27;45478;-78
2023/04/05 09:22:44;;;;;;;;;10.00;9.00;;;;;29.05;26.34;100861.56;5078240;28;45494;-72
2023/04/05 09:25:09;;;;;;;;;7.00;7.00;;;;;29.38;24.26;100866.47;5074220;28;46184;-79
2023/04/05 09:27:35;;;;;;;;;7.00;6.00;;;;;29.70;25.05;100861.47;5067251;28;45358;-78
2023/04/05 09:30:00;;;;;;;;;14.67;9.00;;;;;29.57;24.08;100846.84;5077947;28;45457;-79
2023/04/05 09:32:29;;;;;;;;;9.00;8.00;;;;;28.85;24.56;100857.03;5077233;28;45204;-78
2023/04/05 09:34:59;;;;;;;;;12.00;11.00;;;;;28.64;24.95;100866.81;5076533;28;45503;-74
2023/04/05 09:37:25;;;;;;;;;7.00;7.00;;;;;28.63;25.67;100873.16;5058385;28;45378;-79
2023/04/05 09:40:02;;;;;;;;;9.33;7.00;;;;;28.42;26.50;100860.53;5077076;28;45634;-76
2023/04/05 09:42:31;;;;;;;;;6.67;6.00;;;;;28.38;25.80;100857.09;5078269;28;45292;-77
2023/04/05 09:45:01;;;;;;;;;3.67;3.67;;;;;27.86;25.66;100857.22;5073915;28;46311;-79
2023/04/05 09:47:33;;;;;;;;;7.00;7.00;;;;;27.08;26.75;100850.13;5063935;28;45386;-77
2023/04/05 09:50:22;;;;;;;;;5.00;5.00;;;;;26.98;26.43;100854.03;5077812;27;45450;-78
2023/04/05 09:52:48;;;;;;;;;6.33;6.00;;;;;26.97;26.56;100855.81;5076424;28;45553;-77
2023/04/05 09:55:25;;;;;;;;;8.00;6.67;;;;;26.75;26.73;100852.97;5059179;28;46414;-79
2023/04/05 09:57:51;;;;;;;;;5.33;5.33;;;;;26.03;27.65;100848.94;5077341;28;45535;-78
2023/04/05 10:00:19;;;;;;;;;7.00;7.00;;;;;25.86;28.13;100852.94;5077091;28;45351;-78
2023/04/05 10:02:48;;;;;;;;;5.67;5.00;;;;;25.54;28.40;100845.81;5077529;28;45488;-78
2023/04/05 10:05:14;;;;;;;;;6.00;5.00;;;;;25.58;27.96;100848.34;5075803;28;45546;-78
2023/04/05 10:07:43;;;;;;;;;5.33;4.67;;;;;25.03;27.78;100852.47;5077011;28;45529;-77
2023/04/05 10:10:11;;;;;;;;;6.33;6.33;;;;;24.94;29.18;100833.97;5075035;27;45396;-77
2023/04/05 10:12:40;;;;;;;;;6.33;6.00;;;;;24.85;28.18;100835.09;5077738;28;45556;-77
2023/04/05 10:15:10;;;;;;;;;7.00;7.00;;;;;24.93;28.76;100830.44;5067345;28;46170;-77
2023/04/05 10:17:48;;;;;;;;;6.00;5.67;;;;;25.19;28.29;100840.47;5076660;28;45299;-76
2023/04/05 10:20:16;;;;;;;;;5.00;5.00;;;;;25.16;27.10;100845.00;5077091;28;45382;-78
2023/04/05 10:23:04;;;;;;;;;5.00;4.00;;;;;25.44;27.85;100834.47;5076678;28;45450;-79
2023/04/05 10:25:51;;;;;;;;;6.00;6.00;;;;;25.67;27.42;100838.34;5071375;27;45805;-79
2023/04/05 10:28:32;;;;;;;;;6.00;6.00;;;;;25.89;26.35;100839.47;5063591;28;45241;-78
2023/04/05 10:31:05;;;;;;;;;5.33;5.00;;;;;25.87;26.52;100844.00;5032541;28;1296596;-78
2023/04/05 10:33:40;;;;;;;;;5.33;5.33;;;;;25.22;27.37;100842.19;5073384;28;45526;-73
2023/04/05 10:36:05;;;;;;;;;8.00;8.00;;;;;25.08;28.58;100841.66;5064037;28;45541;-78
2023/04/05 10:38:51;;;;;;;;;7.00;5.00;;;;;24.88;28.25;100832.34;5077758;28;45470;-79
2023/04/05 10:41:16;;;;;;;;;5.67;5.00;;;;;24.24;28.08;100842.69;5077671;28;45458;-78
2023/04/05 10:43:44;;;;;;;;;8.00;8.00;;;;;23.57;28.78;100845.78;5077563;28;45477;-78
2023/04/05 10:46:10;;;;;;;;;9.00;9.00;;;;;23.48;28.94;100831.78;5076948;28;45955;-78
2023/04/05 10:48:48;;;;;;;;;9.00;8.67;;;;;23.54;30.15;100823.66;5077403;28;45437;-78
2023/04/05 10:51:14;;;;;;;;;6.33;6.33;;;;;23.71;30.28;100820.66;5077172;28;45437;-78
2023/04/05 10:53:40;;;;;;;;;5.67;5.00;;;;;23.49;29.81;100836.19;5078447;28;45376;-77
2023/04/05 10:56:07;;;;;;;;;6.00;6.00;;;;;23.29;29.91;100833.88;5076850;28;46720;-78
2023/04/05 10:58:34;;;;;;;;;9.00;9.00;;;;;23.28;29.81;100822.34;5077621;28;45555;-76
2023/04/05 11:01:01;;;;;;;;;5.00;4.67;;;;;22.97;30.48;100811.31;5074720;28;45483;-78
2023/04/05 11:03:50;;;;;;;;;6.33;6.00;;;;;22.74;30.53;100820.56;5076710;28;45561;-77
2023/04/05 11:06:28;;;;;;;;;5.67;5.67;;;;;22.93;31.36;100822.94;5076014;28;45588;-78
2023/04/05 11:09:14;;;;;;;;;6.00;5.00;;;;;22.96;30.94;100820.19;5077146;28;45477;-72
2023/04/05 11:11:42;;;;;;;;;3.67;3.67;;;;;22.90;30.93;100830.97;5077020;28;45168;-78
2023/04/05 11:14:22;;;;;;;;;5.67;5.67;;;;;22.87;32.07;100825.69;5078119;28;45361;-77
2023/04/05 11:16:52;;;;;;;;;8.00;7.00;;;;;22.89;31.79;100818.56;5057229;28;45508;-78
2023/04/05 11:19:17;;;;;;;;;6.00;6.00;;;;;22.57;31.34;100803.97;5074362;28;45447;-78
2023/04/05 11:21:43;;;;;;;;;8.00;8.00;;;;;22.14;31.88;100818.72;5076616;28;45291;-78
2023/04/05 11:24:17;;;;;;;;;5.00;4.33;;;;;22.15;32.41;100811.66;5077613;28;45395;-77
2023/04/05 11:26:43;;;;;;;;;4.00;4.00;;;;;22.26;31.95;100827.50;5077122;28;46101;-77
2023/04/05 11:29:09;;;;;;;;;5.00;5.00;;;;;22.08;31.47;100809.97;5077265;28;45390;-78
2023/04/05 11:31:35;;;;;;;;;3.33;3.33;;;;;22.07;32.13;100805.56;5076889;28;45233;-78